sensor_id;sensor_type;location;lat;lon;timestamp;pressure;altitude;pressure_sealevel;temperature;humidity
57374;BME280;43964;53.890;25.340;2022-08-04T00:00:38;1027.3;;;20;51.2
57374;BME280;43964;53.890;25.340;2022-08-04T00:05:43;1027.4;;;20;51.3
57374;BME280;43964;53.890;25.340;2022-08-04T00:10:38;1027.4;;;19.9;51.4
57374;BME280;43964;53.890;25.340;2022-08-04T00:15:38;1027.4;;;19.8;51.5
57374;BME280;43964;53.890;25.340;2022-08-04T00:20:38;1027.5;;;19.7;51.6
57374;BME280;43964;53.890;25.340;2022-08-04T00:25:39;1027.5;;;19.6;51.7
57374;BME280;43964;53.890;25.340;2022-08-04T00:30:40;1027.5;;;19.5;51.9
57374;BME280;43964;53.890;25.340;2022-08-04T00:35:38;1027.5;;;19.5;52
57374;BME280;43964;53.890;25.340;2022-08-04T00:45:52;1027.5;;;19.5;52.7
57374;BME280;43964;53.890;25.340;2022-08-04T00:50:44;1027.5;;;19.6;52.8
57374;BME280;43964;53.890;25.340;2022-08-04T00:55:46;1027.5;;;19.6;52.8
57374;BME280;43964;53.890;25.340;2022-08-04T01:00:59;1027.5;;;19.5;52.8
57374;BME280;43964;53.890;25.340;2022-08-04T01:05:50;1027.5;;;19.4;52.6
57374;BME280;43964;53.890;25.340;2022-08-04T01:10:47;1027.5;;;19.3;53.1
57374;BME280;43964;53.890;25.340;2022-08-04T01:15:39;1027.6;;;19.3;53.2
57374;BME280;43964;53.890;25.340;2022-08-04T01:20:40;1027.6;;;19.2;53.1
57374;BME280;43964;53.890;25.340;2022-08-04T01:30:38;1027.6;;;19;53.3
57374;BME280;43964;53.890;25.340;2022-08-04T01:35:47;1027.6;;;18.9;53.3
57374;BME280;43964;53.890;25.340;2022-08-04T01:40:38;1027.7;;;18.8;53.4
57374;BME280;43964;53.890;25.340;2022-08-04T01:45:38;1027.7;;;18.8;53.5
57374;BME280;43964;53.890;25.340;2022-08-04T01:50:38;1027.7;;;18.8;53.8
57374;BME280;43964;53.890;25.340;2022-08-04T01:55:38;1027.7;;;18.8;53.9
57374;BME280;43964;53.890;25.340;2022-08-04T02:00:38;1027.7;;;18.8;54.1
57374;BME280;43964;53.890;25.340;2022-08-04T02:05:38;1027.7;;;18.9;54.1
57374;BME280;43964;53.890;25.340;2022-08-04T02:10:47;1027.7;;;18.8;54
57374;BME280;43964;53.890;25.340;2022-08-04T02:15:41;1027.7;;;18.7;54
57374;BME280;43964;53.890;25.340;2022-08-04T02:20:39;1027.6;;;18.6;53.9
57374;BME280;43964;53.890;25.340;2022-08-04T02:25:39;1027.7;;;18.6;54
57374;BME280;43964;53.890;25.340;2022-08-04T02:30:39;1027.7;;;18.5;54
57374;BME280;43964;53.890;25.340;2022-08-04T02:35:38;1027.7;;;18.4;54
57374;BME280;43964;53.890;25.340;2022-08-04T02:40:38;1027.6;;;18.4;54
57374;BME280;43964;53.890;25.340;2022-08-04T02:45:38;1027.6;;;18.5;54.1
57374;BME280;43964;53.890;25.340;2022-08-04T02:50:38;1027.6;;;18.6;54.1
57374;BME280;43964;53.890;25.340;2022-08-04T02:55:38;1027.6;;;18.8;54
57374;BME280;43964;53.890;25.340;2022-08-04T03:00:38;1027.6;;;18.9;53.6
57374;BME280;43964;53.890;25.340;2022-08-04T03:05:43;1027.6;;;20.8;50.6
57374;BME280;43964;53.890;25.340;2022-08-04T03:16:16;1027.5;;;26.3;43.9
57374;BME280;43964;53.890;25.340;2022-08-04T03:20:44;1027.5;;;28.7;41.2
57374;BME280;43964;53.890;25.340;2022-08-04T03:25:52;1027.5;;;30.7;38.6
57374;BME280;43964;53.890;25.340;2022-08-04T03:31:22;1027.5;;;32.8;36
57374;BME280;43964;53.890;25.340;2022-08-04T03:36:31;1027.5;;;34.4;33.8
57374;BME280;43964;53.890;25.340;2022-08-04T03:40:52;1027.5;;;35.9;30.6
57374;BME280;43964;53.890;25.340;2022-08-04T03:50:50;1027.6;;;38.6;26
57374;BME280;43964;53.890;25.340;2022-08-04T03:55:40;1027.7;;;39.8;24.5
57374;BME280;43964;53.890;25.340;2022-08-04T04:00:39;1027.7;;;41.2;22.8
57374;BME280;43964;53.890;25.340;2022-08-04T04:05:46;1027.8;;;42.5;21.4
57374;BME280;43964;53.890;25.340;2022-08-04T04:11:07;1027.9;;;43.6;20.6
57374;BME280;43964;53.890;25.340;2022-08-04T04:16:48;1027.9;;;44.5;19.5
57374;BME280;43964;53.890;25.340;2022-08-04T04:20:52;1028;;;45.3;18.7
57374;BME280;43964;53.890;25.340;2022-08-04T04:30:45;1028;;;46.8;16.9
57374;BME280;43964;53.890;25.340;2022-08-04T04:35:40;1028;;;47.3;15.7
57374;BME280;43964;53.890;25.340;2022-08-04T04:41:03;1028;;;47.9;14.8
57374;BME280;43964;53.890;25.340;2022-08-04T04:45:48;1028.1;;;48.5;14.3
57374;BME280;43964;53.890;25.340;2022-08-04T04:51:47;1028.1;;;49.3;13.7
57374;BME280;43964;53.890;25.340;2022-08-04T04:55:42;1028.1;;;49.9;13
57374;BME280;43964;53.890;25.340;2022-08-04T05:00:58;1028.1;;;50.5;12.8
57374;BME280;43964;53.890;25.340;2022-08-04T05:10:45;1028.1;;;51.8;12.3
57374;BME280;43964;53.890;25.340;2022-08-04T05:15:39;1028.2;;;52.1;12.1
57374;BME280;43964;53.890;25.340;2022-08-04T05:20:39;1028.1;;;52.3;11.4
57374;BME280;43964;53.890;25.340;2022-08-04T05:25:40;1028.2;;;52.3;11.1
57374;BME280;43964;53.890;25.340;2022-08-04T05:30:38;1028.2;;;50.9;11.7
57374;BME280;43964;53.890;25.340;2022-08-04T05:35:48;1028.2;;;46.1;14.8
57374;BME280;43964;53.890;25.340;2022-08-04T05:40:38;1028.2;;;41.7;17.7
57374;BME280;43964;53.890;25.340;2022-08-04T05:45:38;1028.2;;;38.8;19.8
57374;BME280;43964;53.890;25.340;2022-08-04T05:50:38;1028.3;;;36.5;21.2
57374;BME280;43964;53.890;25.340;2022-08-04T05:55:38;1028.3;;;34.9;22.6
57374;BME280;43964;53.890;25.340;2022-08-04T06:00:38;1028.3;;;33.7;23.7
57374;BME280;43964;53.890;25.340;2022-08-04T06:05:39;1028.4;;;32.8;25
57374;BME280;43964;53.890;25.340;2022-08-04T06:10:38;1028.4;;;32.2;26
57374;BME280;43964;53.890;25.340;2022-08-04T06:15:39;1028.4;;;31.7;27.1
57374;BME280;43964;53.890;25.340;2022-08-04T06:20:39;1028.4;;;31.3;28.7
57374;BME280;43964;53.890;25.340;2022-08-04T06:25:40;1028.3;;;31.1;29.5
57374;BME280;43964;53.890;25.340;2022-08-04T06:30:38;1028.3;;;31.1;29.8
57374;BME280;43964;53.890;25.340;2022-08-04T06:35:38;1028.4;;;31.2;29.7
57374;BME280;43964;53.890;25.340;2022-08-04T06:40:38;1028.4;;;31.1;30.3
57374;BME280;43964;53.890;25.340;2022-08-04T06:45:38;1028.4;;;31.2;30.7
57374;BME280;43964;53.890;25.340;2022-08-04T06:50:38;1028.4;;;31.3;30.9
57374;BME280;43964;53.890;25.340;2022-08-04T06:55:39;1028.4;;;31.5;31.5
57374;BME280;43964;53.890;25.340;2022-08-04T07:00:39;1028.4;;;31.4;31.7
57374;BME280;43964;53.890;25.340;2022-08-04T07:05:39;1028.4;;;31.3;31.9
57374;BME280;43964;53.890;25.340;2022-08-04T07:10:38;1028.4;;;31.5;32
57374;BME280;43964;53.890;25.340;2022-08-04T07:15:40;1028.4;;;31.6;32
57374;BME280;43964;53.890;25.340;2022-08-04T07:20:40;1028.4;;;31.6;32
57374;BME280;43964;53.890;25.340;2022-08-04T07:25:38;1028.4;;;31.7;31.8
57374;BME280;43964;53.890;25.340;2022-08-04T07:30:38;1028.4;;;31.6;31.5
57374;BME280;43964;53.890;25.340;2022-08-04T07:35:38;1028.4;;;31.8;31.4
57374;BME280;43964;53.890;25.340;2022-08-04T07:40:38;1028.3;;;31.9;31.2
57374;BME280;43964;53.890;25.340;2022-08-04T07:45:38;1028.3;;;31.8;30.9
57374;BME280;43964;53.890;25.340;2022-08-04T07:50:39;1028.2;;;31.9;30.5
57374;BME280;43964;53.890;25.340;2022-08-04T07:55:38;1028.2;;;31.8;30.1
57374;BME280;43964;53.890;25.340;2022-08-04T08:00:38;1028.2;;;31.6;29.8
57374;BME280;43964;53.890;25.340;2022-08-04T08:05:38;1028.2;;;31.1;30
57374;BME280;43964;53.890;25.340;2022-08-04T08:10:38;1028.2;;;31.2;29.7
57374;BME280;43964;53.890;25.340;2022-08-04T08:15:38;1028.2;;;31.5;29.4
57374;BME280;43964;53.890;25.340;2022-08-04T08:20:38;1028.2;;;31.3;29.1
57374;BME280;43964;53.890;25.340;2022-08-04T08:25:38;1028.2;;;31;29
57374;BME280;43964;53.890;25.340;2022-08-04T08:30:38;1028.2;;;31;29.1
57374;BME280;43964;53.890;25.340;2022-08-04T08:35:46;1028.2;;;31;29.1
57374;BME280;43964;53.890;25.340;2022-08-04T08:40:45;1028.2;;;31.2;29.1
57374;BME280;43964;53.890;25.340;2022-08-04T08:45:45;1028.2;;;31.1;29.1
57374;BME280;43964;53.890;25.340;2022-08-04T08:51:44;1028.2;;;30.8;29.2
57374;BME280;43964;53.890;25.340;2022-08-04T08:55:44;1028.3;;;30.5;29.6
57374;BME280;43964;53.890;25.340;2022-08-04T09:00:57;1028.3;;;30.5;29.7
57374;BME280;43964;53.890;25.340;2022-08-04T09:05:41;1028.2;;;30.6;29.6
57374;BME280;43964;53.890;25.340;2022-08-04T09:15:40;1028.2;;;30.1;29.4
57374;BME280;43964;53.890;25.340;2022-08-04T09:20:39;1028.2;;;30.1;29.6
57374;BME280;43964;53.890;25.340;2022-08-04T09:25:40;1028.1;;;30.4;29.4
57374;BME280;43964;53.890;25.340;2022-08-04T09:30:42;1028.1;;;30.5;29.1
57374;BME280;43964;53.890;25.340;2022-08-04T09:35:41;1028.1;;;30.1;29.2
57374;BME280;43964;53.890;25.340;2022-08-04T09:50:40;1028;;;30;29.7
57374;BME280;43964;53.890;25.340;2022-08-04T09:55:41;1028;;;30.3;29.7
57374;BME280;43964;53.890;25.340;2022-08-04T10:00:46;1027.9;;;30.5;29.6
57374;BME280;43964;53.890;25.340;2022-08-04T10:10:40;1027.9;;;30.3;30
57374;BME280;43964;53.890;25.340;2022-08-04T10:15:39;1027.8;;;30.3;30.1
57374;BME280;43964;53.890;25.340;2022-08-04T10:21:11;1027.8;;;30.2;30.2
57374;BME280;43964;53.890;25.340;2022-08-04T10:25:46;1027.8;;;30.5;30.2
57374;BME280;43964;53.890;25.340;2022-08-04T10:30:39;1027.9;;;30.4;30.1
57374;BME280;43964;53.890;25.340;2022-08-04T10:35:54;1027.8;;;30.4;30.2
57374;BME280;43964;53.890;25.340;2022-08-04T10:40:39;1027.8;;;30.6;30.2
57374;BME280;43964;53.890;25.340;2022-08-04T10:45:39;1027.8;;;30.5;30.4
57374;BME280;43964;53.890;25.340;2022-08-04T10:50:39;1027.8;;;30.3;30.4
57374;BME280;43964;53.890;25.340;2022-08-04T10:55:43;1027.7;;;30.4;30.5
57374;BME280;43964;53.890;25.340;2022-08-04T11:00:38;1027.7;;;30.5;30.4
57374;BME280;43964;53.890;25.340;2022-08-04T11:05:55;1027.6;;;30.7;30.4
57374;BME280;43964;53.890;25.340;2022-08-04T11:10:40;1027.6;;;30.8;30.4
57374;BME280;43964;53.890;25.340;2022-08-04T11:15:41;1027.6;;;30.7;30.4
57374;BME280;43964;53.890;25.340;2022-08-04T11:20:42;1027.6;;;30.3;30.4
57374;BME280;43964;53.890;25.340;2022-08-04T11:25:42;1027.5;;;30.3;30.5
57374;BME280;43964;53.890;25.340;2022-08-04T11:30:40;1027.5;;;30.5;30.3
57374;BME280;43964;53.890;25.340;2022-08-04T11:40:42;1027.5;;;30.6;30.5
57374;BME280;43964;53.890;25.340;2022-08-04T11:45:47;1027.5;;;30.4;30.3
57374;BME280;43964;53.890;25.340;2022-08-04T11:50:39;1027.4;;;30.5;29.9
57374;BME280;43964;53.890;25.340;2022-08-04T11:55:38;1027.4;;;30.6;29.9
57374;BME280;43964;53.890;25.340;2022-08-04T12:00:40;1027.4;;;30.5;30
57374;BME280;43964;53.890;25.340;2022-08-04T12:05:43;1027.3;;;30.6;30
57374;BME280;43964;53.890;25.340;2022-08-04T12:10:40;1027.3;;;30.8;29.9
57374;BME280;43964;53.890;25.340;2022-08-04T12:15:42;1027.3;;;30.7;29.9
57374;BME280;43964;53.890;25.340;2022-08-04T12:20:40;1027.3;;;30.6;30.1
57374;BME280;43964;53.890;25.340;2022-08-04T12:25:39;1027.2;;;30.6;30.5
57374;BME280;43964;53.890;25.340;2022-08-04T12:30:39;1027.2;;;30.5;30.7
57374;BME280;43964;53.890;25.340;2022-08-04T12:35:42;1027.2;;;30.5;30.8
57374;BME280;43964;53.890;25.340;2022-08-04T12:40:41;1027.2;;;30.3;30.9
57374;BME280;43964;53.890;25.340;2022-08-04T12:45:48;1027.1;;;30.5;30.9
57374;BME280;43964;53.890;25.340;2022-08-04T12:50:38;1027.1;;;30.6;30.9
57374;BME280;43964;53.890;25.340;2022-08-04T12:55:43;1027.1;;;30.6;30.8
57374;BME280;43964;53.890;25.340;2022-08-04T13:00:38;1027.1;;;30.7;30.9
57374;BME280;43964;53.890;25.340;2022-08-04T13:05:38;1027.1;;;30.7;30.8
57374;BME280;43964;53.890;25.340;2022-08-04T13:10:39;1027;;;30.6;31
57374;BME280;43964;53.890;25.340;2022-08-04T13:15:38;1027;;;30.5;31.1
57374;BME280;43964;53.890;25.340;2022-08-04T13:20:38;1027;;;30.4;30.8
57374;BME280;43964;53.890;25.340;2022-08-04T13:30:38;1026.8;;;30.4;31.4
57374;BME280;43964;53.890;25.340;2022-08-04T13:35:42;1026.8;;;30.4;31.5
57374;BME280;43964;53.890;25.340;2022-08-04T13:40:38;1026.8;;;30.4;31.6
57374;BME280;43964;53.890;25.340;2022-08-04T13:45:38;1026.7;;;30.8;31.2
57374;BME280;43964;53.890;25.340;2022-08-04T13:50:38;1026.7;;;31.3;30.5
57374;BME280;43964;53.890;25.340;2022-08-04T13:55:38;1026.6;;;31.7;30.5
57374;BME280;43964;53.890;25.340;2022-08-04T14:00:41;1026.6;;;32.1;30.6
57374;BME280;43964;53.890;25.340;2022-08-04T14:05:38;1026.6;;;32.4;30.2
57374;BME280;43964;53.890;25.340;2022-08-04T14:10:38;1026.6;;;32.2;30.1
57374;BME280;43964;53.890;25.340;2022-08-04T14:15:40;1026.6;;;31.8;30.2
57374;BME280;43964;53.890;25.340;2022-08-04T14:20:38;1026.6;;;31.5;30.3
57374;BME280;43964;53.890;25.340;2022-08-04T14:25:38;1026.7;;;31.1;30.7
57374;BME280;43964;53.890;25.340;2022-08-04T14:30:38;1026.6;;;30.9;30.7
57374;BME280;43964;53.890;25.340;2022-08-04T14:35:38;1026.7;;;30.8;30.9
57374;BME280;43964;53.890;25.340;2022-08-04T14:40:39;1026.7;;;30.7;31.1
57374;BME280;43964;53.890;25.340;2022-08-04T14:45:39;1026.7;;;30.7;31.1
57374;BME280;43964;53.890;25.340;2022-08-04T14:50:39;1026.7;;;30.7;31.1
57374;BME280;43964;53.890;25.340;2022-08-04T14:55:39;1026.6;;;30.4;31.2
57374;BME280;43964;53.890;25.340;2022-08-04T15:00:38;1026.5;;;30.4;31.2
57374;BME280;43964;53.890;25.340;2022-08-04T15:05:39;1026.5;;;30.3;31.3
57374;BME280;43964;53.890;25.340;2022-08-04T15:10:38;1026.5;;;30.3;31.3
57374;BME280;43964;53.890;25.340;2022-08-04T15:15:39;1026.5;;;30.3;31.3
57374;BME280;43964;53.890;25.340;2022-08-04T15:20:38;1026.5;;;30.2;31.5
57374;BME280;43964;53.890;25.340;2022-08-04T15:25:39;1026.5;;;30;31.7
57374;BME280;43964;53.890;25.340;2022-08-04T15:30:38;1026.5;;;30;31.8
57374;BME280;43964;53.890;25.340;2022-08-04T15:35:38;1026.4;;;29.9;31.9
57374;BME280;43964;53.890;25.340;2022-08-04T15:40:46;1026.4;;;29.9;32
57374;BME280;43964;53.890;25.340;2022-08-04T15:45:46;1026.4;;;30;31.8
57374;BME280;43964;53.890;25.340;2022-08-04T15:51:10;1026.4;;;30.1;31.7
57374;BME280;43964;53.890;25.340;2022-08-04T15:55:40;1026.4;;;30.1;31.8
57374;BME280;43964;53.890;25.340;2022-08-04T16:01:42;1026.4;;;29.9;32.2
57374;BME280;43964;53.890;25.340;2022-08-04T16:05:38;1026.5;;;29.8;32.4
57374;BME280;43964;53.890;25.340;2022-08-04T16:10:39;1026.5;;;29.8;32.4
57374;BME280;43964;53.890;25.340;2022-08-04T16:15:41;1026.4;;;29.5;33.3
57374;BME280;43964;53.890;25.340;2022-08-04T16:20:38;1026.4;;;29.4;33.6
57374;BME280;43964;53.890;25.340;2022-08-04T16:25:45;1026.4;;;29.3;33.8
57374;BME280;43964;53.890;25.340;2022-08-04T16:30:38;1026.3;;;29.2;34.9
57374;BME280;43964;53.890;25.340;2022-08-04T16:35:38;1026.3;;;29.2;35
57374;BME280;43964;53.890;25.340;2022-08-04T16:40:38;1026.4;;;29.2;35.2
57374;BME280;43964;53.890;25.340;2022-08-04T16:45:39;1026.4;;;29.1;35.4
57374;BME280;43964;53.890;25.340;2022-08-04T16:50:54;1026.4;;;29;35.4
57374;BME280;43964;53.890;25.340;2022-08-04T16:55:38;1026.3;;;28.9;35.7
57374;BME280;43964;53.890;25.340;2022-08-04T17:00:39;1026.3;;;28.9;36.3
57374;BME280;43964;53.890;25.340;2022-08-04T17:05:38;1026.4;;;28.8;36.6
57374;BME280;43964;53.890;25.340;2022-08-04T17:10:39;1026.3;;;28.6;36.9
57374;BME280;43964;53.890;25.340;2022-08-04T17:15:38;1026.3;;;28.5;37.2
57374;BME280;43964;53.890;25.340;2022-08-04T17:20:39;1026.3;;;28.3;37
57374;BME280;43964;53.890;25.340;2022-08-04T17:25:49;1026.3;;;28.1;38.1
57374;BME280;43964;53.890;25.340;2022-08-04T17:30:38;1026.3;;;27.9;38.5
57374;BME280;43964;53.890;25.340;2022-08-04T17:35:39;1026.3;;;27.6;38.6
57374;BME280;43964;53.890;25.340;2022-08-04T17:41:11;1026.3;;;27.4;39.9
57374;BME280;43964;53.890;25.340;2022-08-04T17:45:38;1026.5;;;27.2;39.9
57374;BME280;43964;53.890;25.340;2022-08-04T17:50:38;1026.5;;;27;40.9
57374;BME280;43964;53.890;25.340;2022-08-04T17:55:39;1026.5;;;26.9;41
57374;BME280;43964;53.890;25.340;2022-08-04T18:00:38;1026.6;;;26.4;42.3
57374;BME280;43964;53.890;25.340;2022-08-04T18:05:38;1026.6;;;26.1;43.1
57374;BME280;43964;53.890;25.340;2022-08-04T18:10:39;1026.6;;;26;42.7
57374;BME280;43964;53.890;25.340;2022-08-04T18:15:38;1026.6;;;26;42.7
57374;BME280;43964;53.890;25.340;2022-08-04T18:20:38;1026.7;;;25.8;44.1
57374;BME280;43964;53.890;25.340;2022-08-04T18:25:38;1026.7;;;25.7;44.4
57374;BME280;43964;53.890;25.340;2022-08-04T18:30:38;1026.7;;;25.6;44.6
57374;BME280;43964;53.890;25.340;2022-08-04T18:35:38;1026.7;;;25.4;45.5
57374;BME280;43964;53.890;25.340;2022-08-04T18:40:38;1026.7;;;25.4;46
57374;BME280;43964;53.890;25.340;2022-08-04T18:45:38;1026.7;;;25.3;46.3
57374;BME280;43964;53.890;25.340;2022-08-04T18:50:38;1026.7;;;25.2;45.9
57374;BME280;43964;53.890;25.340;2022-08-04T18:55:38;1026.7;;;25.1;46.5
57374;BME280;43964;53.890;25.340;2022-08-04T19:00:38;1026.7;;;25.1;46.8
57374;BME280;43964;53.890;25.340;2022-08-04T19:05:38;1026.7;;;25;46.9
57374;BME280;43964;53.890;25.340;2022-08-04T19:10:38;1026.7;;;25;47.5
57374;BME280;43964;53.890;25.340;2022-08-04T19:15:38;1026.7;;;25;47.6
57374;BME280;43964;53.890;25.340;2022-08-04T19:20:38;1026.7;;;24.8;47.9
57374;BME280;43964;53.890;25.340;2022-08-04T19:25:38;1026.7;;;24.7;47.9
57374;BME280;43964;53.890;25.340;2022-08-04T19:30:38;1026.7;;;24.7;48.1
57374;BME280;43964;53.890;25.340;2022-08-04T19:35:38;1026.7;;;24.7;48.2
57374;BME280;43964;53.890;25.340;2022-08-04T19:40:38;1026.7;;;24.7;48.3
57374;BME280;43964;53.890;25.340;2022-08-04T19:45:38;1026.7;;;24.5;48.6
57374;BME280;43964;53.890;25.340;2022-08-04T19:50:38;1026.7;;;24.3;48.7
57374;BME280;43964;53.890;25.340;2022-08-04T19:55:38;1026.7;;;24.2;48.6
57374;BME280;43964;53.890;25.340;2022-08-04T20:00:39;1026.7;;;24.2;48.6
57374;BME280;43964;53.890;25.340;2022-08-04T20:05:39;1026.7;;;24.2;48.7
57374;BME280;43964;53.890;25.340;2022-08-04T20:10:38;1026.7;;;24.2;48.6
57374;BME280;43964;53.890;25.340;2022-08-04T20:15:38;1026.8;;;24.2;48.7
57374;BME280;43964;53.890;25.340;2022-08-04T20:20:38;1026.8;;;24.1;48.8
57374;BME280;43964;53.890;25.340;2022-08-04T20:25:38;1026.7;;;24.1;49
57374;BME280;43964;53.890;25.340;2022-08-04T20:30:38;1026.7;;;24;49.5
57374;BME280;43964;53.890;25.340;2022-08-04T20:35:38;1026.7;;;23.9;49.8
57374;BME280;43964;53.890;25.340;2022-08-04T20:40:38;1026.7;;;23.8;50.1
57374;BME280;43964;53.890;25.340;2022-08-04T20:45:38;1026.8;;;23.7;50.4
57374;BME280;43964;53.890;25.340;2022-08-04T20:50:38;1026.8;;;23.6;50
57374;BME280;43964;53.890;25.340;2022-08-04T20:55:38;1026.8;;;23.6;50.5
57374;BME280;43964;53.890;25.340;2022-08-04T21:00:38;1026.7;;;23.5;51.1
57374;BME280;43964;53.890;25.340;2022-08-04T21:05:38;1026.7;;;23.4;51.3
57374;BME280;43964;53.890;25.340;2022-08-04T21:10:38;1026.8;;;23.4;50.8
57374;BME280;43964;53.890;25.340;2022-08-04T21:15:38;1026.8;;;23.4;51.3
57374;BME280;43964;53.890;25.340;2022-08-04T21:20:38;1026.8;;;23.3;51.4
57374;BME280;43964;53.890;25.340;2022-08-04T21:25:38;1026.8;;;23.3;51.4
57374;BME280;43964;53.890;25.340;2022-08-04T21:30:38;1026.8;;;23.4;51.4
57374;BME280;43964;53.890;25.340;2022-08-04T21:35:38;1026.8;;;23.4;51.3
57374;BME280;43964;53.890;25.340;2022-08-04T21:40:38;1026.8;;;23.4;51.3
57374;BME280;43964;53.890;25.340;2022-08-04T21:45:38;1026.8;;;23.4;51.5
57374;BME280;43964;53.890;25.340;2022-08-04T21:50:38;1026.8;;;23.4;51.7
57374;BME280;43964;53.890;25.340;2022-08-04T21:55:38;1026.8;;;23.3;51.8
57374;BME280;43964;53.890;25.340;2022-08-04T22:00:38;1026.8;;;23.2;51.6
57374;BME280;43964;53.890;25.340;2022-08-04T22:05:38;1026.8;;;23.2;51.7
57374;BME280;43964;53.890;25.340;2022-08-04T22:10:38;1026.8;;;23.1;51.9
57374;BME280;43964;53.890;25.340;2022-08-04T22:15:38;1026.8;;;23.1;51.9
57374;BME280;43964;53.890;25.340;2022-08-04T22:20:38;1026.8;;;23;51.9
57374;BME280;43964;53.890;25.340;2022-08-04T22:25:38;1026.8;;;23;51.9
57374;BME280;43964;53.890;25.340;2022-08-04T22:30:38;1026.7;;;22.9;52
57374;BME280;43964;53.890;25.340;2022-08-04T22:35:38;1026.7;;;22.8;52.2
57374;BME280;43964;53.890;25.340;2022-08-04T22:40:38;1026.7;;;22.7;52.5
57374;BME280;43964;53.890;25.340;2022-08-04T22:45:42;1026.7;;;22.7;52.6
57374;BME280;43964;53.890;25.340;2022-08-04T22:50:38;1026.8;;;22.7;52.8
57374;BME280;43964;53.890;25.340;2022-08-04T22:55:38;1026.7;;;22.7;52.9
57374;BME280;43964;53.890;25.340;2022-08-04T23:00:38;1026.7;;;22.6;52.9
57374;BME280;43964;53.890;25.340;2022-08-04T23:05:38;1026.7;;;22.7;52.8
57374;BME280;43964;53.890;25.340;2022-08-04T23:10:40;1026.6;;;22.7;52.9
57374;BME280;43964;53.890;25.340;2022-08-04T23:15:39;1026.6;;;22.7;53.1
57374;BME280;43964;53.890;25.340;2022-08-04T23:20:38;1026.6;;;22.7;52.9
57374;BME280;43964;53.890;25.340;2022-08-04T23:25:38;1026.6;;;22.7;53
57374;BME280;43964;53.890;25.340;2022-08-04T23:30:38;1026.6;;;22.7;53
57374;BME280;43964;53.890;25.340;2022-08-04T23:35:38;1026.5;;;22.7;53.3
57374;BME280;43964;53.890;25.340;2022-08-04T23:40:39;1026.5;;;22.6;53.5
57374;BME280;43964;53.890;25.340;2022-08-04T23:45:38;1026.5;;;22.6;53.7
57374;BME280;43964;53.890;25.340;2022-08-04T23:50:38;1026.5;;;22.6;53.9
57374;BME280;43964;53.890;25.340;2022-08-04T23:55:38;1026.5;;;22.6;53.9
